sensor_id;sensor_type;location;lat;lon;timestamp;P1;durP1;ratioP1;P2;durP2;ratioP2
68449;SDS011;67758;39.572;2.652;2024-03-23T00:53:56;14.27;;;3.95;;
68449;SDS011;67758;39.572;2.652;2024-03-23T00:56:23;14.33;;;3.60;;
68449;SDS011;67758;39.572;2.652;2024-03-23T00:58:49;13.73;;;3.67;;
68449;SDS011;67758;39.572;2.652;2024-03-23T01:01:15;10.52;;;3.40;;
68449;SDS011;67758;39.572;2.652;2024-03-23T01:03:41;11.10;;;2.80;;
68449;SDS011;67758;39.572;2.652;2024-03-23T01:06:09;11.60;;;3.10;;
68449;SDS011;67758;39.572;2.652;2024-03-23T01:08:35;10.50;;;2.85;;
68449;SDS011;67758;39.572;2.652;2024-03-23T01:11:03;9.00;;;2.78;;
68449;SDS011;67758;39.572;2.652;2024-03-23T01:13:29;9.13;;;3.30;;
68449;SDS011;67758;39.572;2.652;2024-03-23T01:15:55;9.97;;;2.77;;
68449;SDS011;67758;39.572;2.652;2024-03-23T01:18:24;9.77;;;3.08;;
68449;SDS011;67758;39.572;2.652;2024-03-23T01:20:53;12.60;;;3.13;;
68449;SDS011;67758;39.572;2.652;2024-03-23T01:23:21;13.93;;;3.33;;
68449;SDS011;67758;39.572;2.652;2024-03-23T01:25:59;10.40;;;2.80;;
68449;SDS011;67758;39.572;2.652;2024-03-23T01:28:38;11.20;;;2.45;;
68449;SDS011;67758;39.572;2.652;2024-03-23T01:31:03;10.48;;;3.13;;
68449;SDS011;67758;39.572;2.652;2024-03-23T01:33:29;11.17;;;3.50;;
68449;SDS011;67758;39.572;2.652;2024-03-23T01:35:55;12.02;;;3.05;;
68449;SDS011;67758;39.572;2.652;2024-03-23T01:38:21;13.75;;;3.40;;
68449;SDS011;67758;39.572;2.652;2024-03-23T01:40:47;16.50;;;3.63;;
68449;SDS011;67758;39.572;2.652;2024-03-23T01:43:18;14.15;;;3.05;;
68449;SDS011;67758;39.572;2.652;2024-03-23T01:45:44;10.80;;;3.40;;
68449;SDS011;67758;39.572;2.652;2024-03-23T01:48:09;11.47;;;3.80;;
68449;SDS011;67758;39.572;2.652;2024-03-23T01:50:40;10.57;;;3.63;;
68449;SDS011;67758;39.572;2.652;2024-03-23T01:53:12;12.20;;;3.15;;
68449;SDS011;67758;39.572;2.652;2024-03-23T01:55:42;10.43;;;2.83;;
68449;SDS011;67758;39.572;2.652;2024-03-23T01:58:08;11.32;;;3.25;;
68449;SDS011;67758;39.572;2.652;2024-03-23T02:00:34;11.87;;;3.70;;
68449;SDS011;67758;39.572;2.652;2024-03-23T02:03:00;11.07;;;3.28;;
68449;SDS011;67758;39.572;2.652;2024-03-23T02:05:25;13.33;;;3.10;;
68449;SDS011;67758;39.572;2.652;2024-03-23T02:07:51;11.32;;;3.33;;
68449;SDS011;67758;39.572;2.652;2024-03-23T02:10:17;13.63;;;3.38;;
68449;SDS011;67758;39.572;2.652;2024-03-23T02:12:43;10.93;;;3.40;;
68449;SDS011;67758;39.572;2.652;2024-03-23T02:15:08;12.15;;;3.42;;
68449;SDS011;67758;39.572;2.652;2024-03-23T02:17:34;11.00;;;3.20;;
68449;SDS011;67758;39.572;2.652;2024-03-23T02:20:02;11.45;;;2.80;;
68449;SDS011;67758;39.572;2.652;2024-03-23T02:22:37;11.73;;;2.72;;
68449;SDS011;67758;39.572;2.652;2024-03-23T02:25:06;11.33;;;3.20;;
68449;SDS011;67758;39.572;2.652;2024-03-23T02:27:33;13.27;;;3.22;;
68449;SDS011;67758;39.572;2.652;2024-03-23T02:30:04;10.15;;;3.20;;
68449;SDS011;67758;39.572;2.652;2024-03-23T02:32:30;10.60;;;3.10;;
68449;SDS011;67758;39.572;2.652;2024-03-23T02:34:56;11.23;;;3.10;;
68449;SDS011;67758;39.572;2.652;2024-03-23T02:37:21;10.48;;;2.95;;
68449;SDS011;67758;39.572;2.652;2024-03-23T02:39:47;10.73;;;3.30;;
68449;SDS011;67758;39.572;2.652;2024-03-23T02:42:13;10.27;;;2.60;;
68449;SDS011;67758;39.572;2.652;2024-03-23T02:44:42;16.92;;;3.10;;
68449;SDS011;67758;39.572;2.652;2024-03-23T02:47:07;9.27;;;2.87;;
68449;SDS011;67758;39.572;2.652;2024-03-23T02:49:33;12.98;;;3.22;;
68449;SDS011;67758;39.572;2.652;2024-03-23T02:52:02;12.20;;;2.83;;
68449;SDS011;67758;39.572;2.652;2024-03-23T02:54:30;9.23;;;3.03;;
68449;SDS011;67758;39.572;2.652;2024-03-23T02:56:56;8.35;;;3.47;;
68449;SDS011;67758;39.572;2.652;2024-03-23T02:59:25;9.73;;;3.33;;
68449;SDS011;67758;39.572;2.652;2024-03-23T03:02:01;10.93;;;3.40;;
68449;SDS011;67758;39.572;2.652;2024-03-23T03:04:52;12.30;;;3.65;;
68449;SDS011;67758;39.572;2.652;2024-03-23T03:07:32;11.63;;;3.83;;
68449;SDS011;67758;39.572;2.652;2024-03-23T03:10:15;15.90;;;4.05;;
68449;SDS011;67758;39.572;2.652;2024-03-23T03:12:48;12.32;;;4.13;;
68449;SDS011;67758;39.572;2.652;2024-03-23T03:15:20;16.95;;;5.70;;
68449;SDS011;67758;39.572;2.652;2024-03-23T03:17:46;14.63;;;5.17;;
68449;SDS011;67758;39.572;2.652;2024-03-23T03:20:11;11.98;;;5.47;;
68449;SDS011;67758;39.572;2.652;2024-03-23T03:22:39;13.63;;;5.72;;
68449;SDS011;67758;39.572;2.652;2024-03-23T03:25:05;15.50;;;4.90;;
68449;SDS011;67758;39.572;2.652;2024-03-23T03:27:34;15.90;;;5.18;;
68449;SDS011;67758;39.572;2.652;2024-03-23T03:30:00;11.48;;;4.25;;
68449;SDS011;67758;39.572;2.652;2024-03-23T03:32:32;14.95;;;4.75;;
68449;SDS011;67758;39.572;2.652;2024-03-23T03:34:58;15.85;;;5.45;;
68449;SDS011;67758;39.572;2.652;2024-03-23T03:37:24;12.27;;;4.73;;
68449;SDS011;67758;39.572;2.652;2024-03-23T03:39:50;16.20;;;5.28;;
68449;SDS011;67758;39.572;2.652;2024-03-23T03:42:16;13.50;;;5.30;;
68449;SDS011;67758;39.572;2.652;2024-03-23T03:44:43;15.00;;;4.63;;
68449;SDS011;67758;39.572;2.652;2024-03-23T03:47:08;14.02;;;4.72;;
68449;SDS011;67758;39.572;2.652;2024-03-23T03:49:34;12.03;;;4.70;;
68449;SDS011;67758;39.572;2.652;2024-03-23T03:52:00;13.30;;;5.03;;
68449;SDS011;67758;39.572;2.652;2024-03-23T03:54:27;12.45;;;5.28;;
68449;SDS011;67758;39.572;2.652;2024-03-23T03:56:53;13.30;;;5.07;;
68449;SDS011;67758;39.572;2.652;2024-03-23T03:59:22;12.32;;;5.55;;
68449;SDS011;67758;39.572;2.652;2024-03-23T04:01:52;12.65;;;4.93;;
68449;SDS011;67758;39.572;2.652;2024-03-23T04:04:35;12.02;;;4.90;;
68449;SDS011;67758;39.572;2.652;2024-03-23T04:07:06;14.82;;;5.35;;
68449;SDS011;67758;39.572;2.652;2024-03-23T04:09:41;13.23;;;5.20;;
68449;SDS011;67758;39.572;2.652;2024-03-23T04:12:07;13.50;;;5.07;;
68449;SDS011;67758;39.572;2.652;2024-03-23T04:14:32;13.50;;;5.33;;
68449;SDS011;67758;39.572;2.652;2024-03-23T04:17:04;13.10;;;5.70;;
68449;SDS011;67758;39.572;2.652;2024-03-23T04:19:31;17.42;;;5.47;;
68449;SDS011;67758;39.572;2.652;2024-03-23T04:21:59;13.75;;;4.82;;
68449;SDS011;67758;39.572;2.652;2024-03-23T04:24:25;14.60;;;5.40;;
68449;SDS011;67758;39.572;2.652;2024-03-23T04:26:52;14.40;;;4.90;;
68449;SDS011;67758;39.572;2.652;2024-03-23T04:29:20;12.27;;;4.80;;
68449;SDS011;67758;39.572;2.652;2024-03-23T04:31:46;16.30;;;4.75;;
68449;SDS011;67758;39.572;2.652;2024-03-23T04:34:20;11.38;;;4.32;;
68449;SDS011;67758;39.572;2.652;2024-03-23T04:36:46;13.07;;;4.27;;
68449;SDS011;67758;39.572;2.652;2024-03-23T04:39:15;12.85;;;4.35;;
68449;SDS011;67758;39.572;2.652;2024-03-23T04:41:41;16.95;;;5.88;;
68449;SDS011;67758;39.572;2.652;2024-03-23T04:44:07;12.77;;;4.07;;
68449;SDS011;67758;39.572;2.652;2024-03-23T04:46:32;14.15;;;4.65;;
68449;SDS011;67758;39.572;2.652;2024-03-23T04:48:58;13.20;;;4.73;;
68449;SDS011;67758;39.572;2.652;2024-03-23T04:51:24;17.50;;;5.05;;
68449;SDS011;67758;39.572;2.652;2024-03-23T04:53:53;11.80;;;4.35;;
68449;SDS011;67758;39.572;2.652;2024-03-23T04:56:18;12.73;;;4.63;;
68449;SDS011;67758;39.572;2.652;2024-03-23T04:58:47;15.50;;;4.55;;
68449;SDS011;67758;39.572;2.652;2024-03-23T05:01:13;15.93;;;5.20;;
68449;SDS011;67758;39.572;2.652;2024-03-23T05:03:39;15.05;;;5.07;;
68449;SDS011;67758;39.572;2.652;2024-03-23T05:06:04;17.83;;;5.03;;
68449;SDS011;67758;39.572;2.652;2024-03-23T05:08:30;13.17;;;4.70;;
68449;SDS011;67758;39.572;2.652;2024-03-23T05:10:56;17.20;;;5.25;;
68449;SDS011;67758;39.572;2.652;2024-03-23T05:13:22;15.77;;;4.53;;
68449;SDS011;67758;39.572;2.652;2024-03-23T05:15:54;17.73;;;5.10;;
68449;SDS011;67758;39.572;2.652;2024-03-23T05:18:20;13.20;;;5.38;;
68449;SDS011;67758;39.572;2.652;2024-03-23T05:20:47;19.20;;;6.23;;
68449;SDS011;67758;39.572;2.652;2024-03-23T05:23:15;19.00;;;6.22;;
68449;SDS011;67758;39.572;2.652;2024-03-23T05:25:44;15.20;;;5.28;;
68449;SDS011;67758;39.572;2.652;2024-03-23T05:28:12;14.75;;;5.05;;
68449;SDS011;67758;39.572;2.652;2024-03-23T05:30:38;13.40;;;4.83;;
68449;SDS011;67758;39.572;2.652;2024-03-23T05:33:04;13.63;;;5.05;;
68449;SDS011;67758;39.572;2.652;2024-03-23T05:35:30;16.00;;;5.28;;
68449;SDS011;67758;39.572;2.652;2024-03-23T05:37:55;14.33;;;5.90;;
68449;SDS011;67758;39.572;2.652;2024-03-23T05:40:21;11.45;;;4.22;;
68449;SDS011;67758;39.572;2.652;2024-03-23T05:42:48;15.80;;;4.75;;
68449;SDS011;67758;39.572;2.652;2024-03-23T05:45:14;11.10;;;4.20;;
68449;SDS011;67758;39.572;2.652;2024-03-23T05:47:43;13.30;;;4.45;;
68449;SDS011;67758;39.572;2.652;2024-03-23T05:50:10;10.80;;;4.35;;
68449;SDS011;67758;39.572;2.652;2024-03-23T05:52:38;13.80;;;5.30;;
68449;SDS011;67758;39.572;2.652;2024-03-23T05:55:04;15.50;;;4.80;;
68449;SDS011;67758;39.572;2.652;2024-03-23T05:57:33;17.80;;;5.27;;
68449;SDS011;67758;39.572;2.652;2024-03-23T05:59:58;13.40;;;4.20;;
68449;SDS011;67758;39.572;2.652;2024-03-23T06:02:43;10.98;;;3.55;;
68449;SDS011;67758;39.572;2.652;2024-03-23T06:05:12;14.88;;;3.35;;
68449;SDS011;67758;39.572;2.652;2024-03-23T06:07:41;11.43;;;3.43;;
68449;SDS011;67758;39.572;2.652;2024-03-23T06:10:06;13.30;;;3.63;;
68449;SDS011;67758;39.572;2.652;2024-03-23T06:12:33;12.63;;;3.47;;
68449;SDS011;67758;39.572;2.652;2024-03-23T06:14:58;12.00;;;3.50;;
68449;SDS011;67758;39.572;2.652;2024-03-23T06:17:24;13.65;;;3.40;;
68449;SDS011;67758;39.572;2.652;2024-03-23T06:19:54;11.63;;;3.10;;
68449;SDS011;67758;39.572;2.652;2024-03-23T06:22:20;16.07;;;4.27;;
68449;SDS011;67758;39.572;2.652;2024-03-23T06:24:46;14.68;;;3.72;;
68449;SDS011;67758;39.572;2.652;2024-03-23T06:27:12;19.17;;;4.23;;
68449;SDS011;67758;39.572;2.652;2024-03-23T06:29:37;16.83;;;4.38;;
68449;SDS011;67758;39.572;2.652;2024-03-23T06:32:03;12.63;;;3.80;;
68449;SDS011;67758;39.572;2.652;2024-03-23T06:34:35;15.82;;;3.75;;
68449;SDS011;67758;39.572;2.652;2024-03-23T06:37:01;11.15;;;3.63;;
68449;SDS011;67758;39.572;2.652;2024-03-23T06:39:28;10.60;;;4.33;;
68449;SDS011;67758;39.572;2.652;2024-03-23T06:41:54;13.80;;;4.47;;
68449;SDS011;67758;39.572;2.652;2024-03-23T06:44:20;11.52;;;4.13;;
68449;SDS011;67758;39.572;2.652;2024-03-23T06:46:46;14.18;;;4.30;;
68449;SDS011;67758;39.572;2.652;2024-03-23T06:49:18;13.05;;;4.60;;
68449;SDS011;67758;39.572;2.652;2024-03-23T06:51:44;16.15;;;4.65;;
68449;SDS011;67758;39.572;2.652;2024-03-23T06:54:10;12.65;;;4.45;;
68449;SDS011;67758;39.572;2.652;2024-03-23T06:56:40;12.85;;;5.65;;
68449;SDS011;67758;39.572;2.652;2024-03-23T06:59:06;18.97;;;4.77;;
68449;SDS011;67758;39.572;2.652;2024-03-23T07:01:31;13.80;;;4.15;;
68449;SDS011;67758;39.572;2.652;2024-03-23T07:03:57;16.98;;;4.43;;
68449;SDS011;67758;39.572;2.652;2024-03-23T07:06:23;14.80;;;4.83;;
68449;SDS011;67758;39.572;2.652;2024-03-23T07:08:48;12.80;;;4.33;;
68449;SDS011;67758;39.572;2.652;2024-03-23T07:11:23;16.25;;;4.90;;
68449;SDS011;67758;39.572;2.652;2024-03-23T07:13:49;16.25;;;5.28;;
68449;SDS011;67758;39.572;2.652;2024-03-23T07:16:16;13.17;;;5.03;;
68449;SDS011;67758;39.572;2.652;2024-03-23T07:18:42;17.55;;;5.35;;
68449;SDS011;67758;39.572;2.652;2024-03-23T07:21:08;16.38;;;4.97;;
68449;SDS011;67758;39.572;2.652;2024-03-23T07:23:33;16.33;;;5.17;;
68449;SDS011;67758;39.572;2.652;2024-03-23T07:26:00;16.30;;;5.28;;
68449;SDS011;67758;39.572;2.652;2024-03-23T07:28:27;16.05;;;5.15;;
68449;SDS011;67758;39.572;2.652;2024-03-23T07:31:15;20.07;;;5.40;;
68449;SDS011;67758;39.572;2.652;2024-03-23T07:33:48;15.07;;;5.25;;
68449;SDS011;67758;39.572;2.652;2024-03-23T07:36:14;14.32;;;5.00;;
68449;SDS011;67758;39.572;2.652;2024-03-23T07:38:43;13.93;;;5.00;;
68449;SDS011;67758;39.572;2.652;2024-03-23T07:41:14;15.70;;;5.28;;
68449;SDS011;67758;39.572;2.652;2024-03-23T07:43:40;16.70;;;4.90;;
68449;SDS011;67758;39.572;2.652;2024-03-23T07:46:06;17.15;;;5.65;;
68449;SDS011;67758;39.572;2.652;2024-03-23T07:48:32;13.82;;;4.45;;
68449;SDS011;67758;39.572;2.652;2024-03-23T07:51:07;16.00;;;4.65;;
68449;SDS011;67758;39.572;2.652;2024-03-23T07:53:51;12.48;;;5.43;;
68449;SDS011;67758;39.572;2.652;2024-03-23T07:56:17;11.10;;;5.07;;
68449;SDS011;67758;39.572;2.652;2024-03-23T07:58:44;14.73;;;5.20;;
68449;SDS011;67758;39.572;2.652;2024-03-23T08:01:13;20.20;;;5.88;;
68449;SDS011;67758;39.572;2.652;2024-03-23T08:03:41;17.60;;;5.72;;
68449;SDS011;67758;39.572;2.652;2024-03-23T08:06:08;13.60;;;5.75;;
68449;SDS011;67758;39.572;2.652;2024-03-23T08:08:34;19.00;;;6.40;;
68449;SDS011;67758;39.572;2.652;2024-03-23T08:11:00;18.77;;;6.93;;
68449;SDS011;67758;39.572;2.652;2024-03-23T08:13:26;36.35;;;7.50;;
68449;SDS011;67758;39.572;2.652;2024-03-23T08:15:55;23.80;;;6.70;;
68449;SDS011;67758;39.572;2.652;2024-03-23T08:18:22;20.45;;;6.80;;
68449;SDS011;67758;39.572;2.652;2024-03-23T08:20:54;22.10;;;7.07;;
68449;SDS011;67758;39.572;2.652;2024-03-23T08:23:21;21.90;;;6.23;;
68449;SDS011;67758;39.572;2.652;2024-03-23T08:25:46;16.63;;;6.47;;
68449;SDS011;67758;39.572;2.652;2024-03-23T08:28:12;15.80;;;6.40;;
68449;SDS011;67758;39.572;2.652;2024-03-23T08:30:38;16.65;;;6.45;;
68449;SDS011;67758;39.572;2.652;2024-03-23T08:33:03;19.57;;;6.03;;
68449;SDS011;67758;39.572;2.652;2024-03-23T08:35:29;18.65;;;6.07;;
68449;SDS011;67758;39.572;2.652;2024-03-23T08:37:54;22.13;;;7.63;;
68449;SDS011;67758;39.572;2.652;2024-03-23T08:40:20;21.23;;;6.53;;
68449;SDS011;67758;39.572;2.652;2024-03-23T08:42:46;15.57;;;6.47;;
68449;SDS011;67758;39.572;2.652;2024-03-23T08:45:11;13.23;;;6.78;;
68449;SDS011;67758;39.572;2.652;2024-03-23T08:47:37;18.43;;;7.80;;
68449;SDS011;67758;39.572;2.652;2024-03-23T08:50:02;16.33;;;6.20;;
68449;SDS011;67758;39.572;2.652;2024-03-23T08:52:28;12.13;;;4.95;;
68449;SDS011;67758;39.572;2.652;2024-03-23T08:54:55;12.82;;;5.30;;
68449;SDS011;67758;39.572;2.652;2024-03-23T08:57:22;17.48;;;7.38;;
68449;SDS011;67758;39.572;2.652;2024-03-23T08:59:48;20.52;;;7.50;;
68449;SDS011;67758;39.572;2.652;2024-03-23T09:02:14;13.07;;;5.03;;
68449;SDS011;67758;39.572;2.652;2024-03-23T09:04:39;13.57;;;5.15;;
68449;SDS011;67758;39.572;2.652;2024-03-23T09:07:05;15.43;;;5.10;;
68449;SDS011;67758;39.572;2.652;2024-03-23T09:09:30;11.70;;;4.17;;
68449;SDS011;67758;39.572;2.652;2024-03-23T09:11:59;13.63;;;4.25;;
68449;SDS011;67758;39.572;2.652;2024-03-23T09:14:24;11.48;;;4.50;;
68449;SDS011;67758;39.572;2.652;2024-03-23T09:16:50;13.33;;;4.53;;
68449;SDS011;67758;39.572;2.652;2024-03-23T09:19:17;18.77;;;4.20;;
68449;SDS011;67758;39.572;2.652;2024-03-23T09:21:43;15.83;;;3.87;;
68449;SDS011;67758;39.572;2.652;2024-03-23T09:24:08;12.80;;;3.80;;
68449;SDS011;67758;39.572;2.652;2024-03-23T09:26:34;10.60;;;3.57;;
68449;SDS011;67758;39.572;2.652;2024-03-23T09:28:59;12.02;;;3.70;;
68449;SDS011;67758;39.572;2.652;2024-03-23T09:31:25;13.47;;;3.77;;
68449;SDS011;67758;39.572;2.652;2024-03-23T09:33:51;11.97;;;2.70;;
68449;SDS011;67758;39.572;2.652;2024-03-23T09:36:16;12.98;;;3.65;;
68449;SDS011;67758;39.572;2.652;2024-03-23T09:38:42;9.20;;;3.00;;
68449;SDS011;67758;39.572;2.652;2024-03-23T09:41:08;11.87;;;2.93;;
68449;SDS011;67758;39.572;2.652;2024-03-23T09:43:34;14.40;;;3.60;;
68449;SDS011;67758;39.572;2.652;2024-03-23T09:46:01;13.60;;;3.38;;
68449;SDS011;67758;39.572;2.652;2024-03-23T09:48:27;10.18;;;3.08;;
68449;SDS011;67758;39.572;2.652;2024-03-23T09:50:53;7.83;;;2.47;;
68449;SDS011;67758;39.572;2.652;2024-03-23T09:53:19;14.55;;;2.90;;
68449;SDS011;67758;39.572;2.652;2024-03-23T09:55:44;10.83;;;2.83;;
68449;SDS011;67758;39.572;2.652;2024-03-23T09:58:15;8.23;;;3.08;;
68449;SDS011;67758;39.572;2.652;2024-03-23T10:00:41;8.50;;;2.90;;
68449;SDS011;67758;39.572;2.652;2024-03-23T10:03:07;11.20;;;3.13;;
68449;SDS011;67758;39.572;2.652;2024-03-23T10:05:33;10.30;;;3.10;;
68449;SDS011;67758;39.572;2.652;2024-03-23T10:10:43;11.23;;;3.20;;
68449;SDS011;67758;39.572;2.652;2024-03-23T10:13:10;10.70;;;2.40;;
68449;SDS011;67758;39.572;2.652;2024-03-23T10:15:38;14.57;;;3.47;;
68449;SDS011;67758;39.572;2.652;2024-03-23T10:18:18;13.35;;;3.13;;
68449;SDS011;67758;39.572;2.652;2024-03-23T10:20:52;9.73;;;2.85;;
68449;SDS011;67758;39.572;2.652;2024-03-23T10:23:37;8.20;;;2.65;;
68449;SDS011;67758;39.572;2.652;2024-03-23T10:26:20;6.75;;;2.30;;
68449;SDS011;67758;39.572;2.652;2024-03-23T10:28:57;7.97;;;2.30;;
68449;SDS011;67758;39.572;2.652;2024-03-23T10:31:30;8.38;;;2.70;;
68449;SDS011;67758;39.572;2.652;2024-03-23T10:33:56;10.13;;;2.70;;
68449;SDS011;67758;39.572;2.652;2024-03-23T10:36:27;9.43;;;3.30;;
68449;SDS011;67758;39.572;2.652;2024-03-23T10:38:57;7.95;;;2.72;;
68449;SDS011;67758;39.572;2.652;2024-03-23T10:41:26;10.30;;;3.30;;
68449;SDS011;67758;39.572;2.652;2024-03-23T10:43:53;8.43;;;2.75;;
68449;SDS011;67758;39.572;2.652;2024-03-23T10:46:21;11.75;;;3.60;;
68449;SDS011;67758;39.572;2.652;2024-03-23T10:48:46;8.97;;;2.80;;
68449;SDS011;67758;39.572;2.652;2024-03-23T10:51:14;11.20;;;3.70;;
68449;SDS011;67758;39.572;2.652;2024-03-23T10:53:39;10.00;;;3.15;;
68449;SDS011;67758;39.572;2.652;2024-03-23T10:56:08;9.85;;;3.20;;
68449;SDS011;67758;39.572;2.652;2024-03-23T10:58:44;9.60;;;4.20;;
68449;SDS011;67758;39.572;2.652;2024-03-23T11:01:14;10.57;;;3.97;;
68449;SDS011;67758;39.572;2.652;2024-03-23T11:03:47;6.93;;;3.40;;
68449;SDS011;67758;39.572;2.652;2024-03-23T11:06:36;11.75;;;3.75;;
68449;SDS011;67758;39.572;2.652;2024-03-23T11:09:52;11.55;;;3.80;;
68449;SDS011;67758;39.572;2.652;2024-03-23T11:14:47;16.42;;;4.13;;
68449;SDS011;67758;39.572;2.652;2024-03-23T11:17:20;12.15;;;4.55;;
68449;SDS011;67758;39.572;2.652;2024-03-23T11:25:22;17.73;;;3.90;;
68449;SDS011;67758;39.572;2.652;2024-03-23T11:30:34;14.18;;;3.28;;
68449;SDS011;67758;39.572;2.652;2024-03-23T11:33:00;13.80;;;4.80;;
68449;SDS011;67758;39.572;2.652;2024-03-23T11:35:34;13.02;;;4.53;;
68449;SDS011;67758;39.572;2.652;2024-03-23T11:40:38;11.88;;;5.07;;
68449;SDS011;67758;39.572;2.652;2024-03-23T11:43:07;10.13;;;3.83;;
68449;SDS011;67758;39.572;2.652;2024-03-23T11:45:39;15.03;;;5.10;;
68449;SDS011;67758;39.572;2.652;2024-03-23T11:48:09;8.82;;;4.47;;
68449;SDS011;67758;39.572;2.652;2024-03-23T11:50:42;10.35;;;4.00;;
68449;SDS011;67758;39.572;2.652;2024-03-23T11:55:43;9.95;;;4.28;;
68449;SDS011;67758;39.572;2.652;2024-03-23T11:58:14;12.87;;;5.40;;
68449;SDS011;67758;39.572;2.652;2024-03-23T12:00:40;8.48;;;4.85;;
68449;SDS011;67758;39.572;2.652;2024-03-23T12:03:06;14.80;;;5.45;;
68449;SDS011;67758;39.572;2.652;2024-03-23T12:05:33;9.50;;;4.85;;
68449;SDS011;67758;39.572;2.652;2024-03-23T12:08:18;11.07;;;3.95;;
68449;SDS011;67758;39.572;2.652;2024-03-23T12:11:04;9.50;;;5.00;;
68449;SDS011;67758;39.572;2.652;2024-03-23T12:13:36;10.48;;;3.83;;
68449;SDS011;67758;39.572;2.652;2024-03-23T12:19:04;12.18;;;4.85;;
68449;SDS011;67758;39.572;2.652;2024-03-23T12:21:31;10.43;;;4.43;;
68449;SDS011;67758;39.572;2.652;2024-03-23T12:23:59;11.07;;;3.87;;
68449;SDS011;67758;39.572;2.652;2024-03-23T12:26:25;9.95;;;3.70;;
68449;SDS011;67758;39.572;2.652;2024-03-23T12:28:51;9.97;;;4.53;;
68449;SDS011;67758;39.572;2.652;2024-03-23T12:31:19;11.98;;;5.35;;
68449;SDS011;67758;39.572;2.652;2024-03-23T12:33:47;15.85;;;6.30;;
68449;SDS011;67758;39.572;2.652;2024-03-23T12:36:13;13.60;;;6.10;;
68449;SDS011;67758;39.572;2.652;2024-03-23T12:38:41;11.32;;;6.07;;
68449;SDS011;67758;39.572;2.652;2024-03-23T12:41:08;13.65;;;6.72;;
68449;SDS011;67758;39.572;2.652;2024-03-23T12:44:14;10.75;;;5.90;;
68449;SDS011;67758;39.572;2.652;2024-03-23T12:58:43;14.93;;;6.88;;
68449;SDS011;67758;39.572;2.652;2024-03-23T13:01:54;12.23;;;7.03;;
68449;SDS011;67758;39.572;2.652;2024-03-23T13:04:27;11.80;;;7.53;;
68449;SDS011;67758;39.572;2.652;2024-03-23T13:07:05;13.57;;;7.80;;
68449;SDS011;67758;39.572;2.652;2024-03-23T13:12:48;14.00;;;6.70;;
68449;SDS011;67758;39.572;2.652;2024-03-23T13:15:14;13.88;;;6.25;;
68449;SDS011;67758;39.572;2.652;2024-03-23T13:17:52;14.68;;;6.72;;
68449;SDS011;67758;39.572;2.652;2024-03-23T13:20:22;11.40;;;6.27;;
68449;SDS011;67758;39.572;2.652;2024-03-23T13:23:18;15.93;;;6.18;;
68449;SDS011;67758;39.572;2.652;2024-03-23T13:25:55;13.15;;;6.97;;
68449;SDS011;67758;39.572;2.652;2024-03-23T13:28:29;10.30;;;5.60;;
68449;SDS011;67758;39.572;2.652;2024-03-23T13:30:57;13.20;;;6.10;;
68449;SDS011;67758;39.572;2.652;2024-03-23T13:33:30;13.33;;;5.60;;
68449;SDS011;67758;39.572;2.652;2024-03-23T13:36:02;9.48;;;4.88;;
68449;SDS011;67758;39.572;2.652;2024-03-23T13:38:54;12.80;;;7.55;;
68449;SDS011;67758;39.572;2.652;2024-03-23T13:41:26;15.07;;;6.85;;
68449;SDS011;67758;39.572;2.652;2024-03-23T13:43:58;11.45;;;6.07;;
68449;SDS011;67758;39.572;2.652;2024-03-23T13:47:07;10.27;;;5.33;;
68449;SDS011;67758;39.572;2.652;2024-03-23T13:49:33;11.18;;;5.20;;
68449;SDS011;67758;39.572;2.652;2024-03-23T13:52:08;12.60;;;6.05;;
68449;SDS011;67758;39.572;2.652;2024-03-23T13:55:12;12.20;;;5.20;;
68449;SDS011;67758;39.572;2.652;2024-03-23T14:08:35;12.30;;;5.82;;
68449;SDS011;67758;39.572;2.652;2024-03-23T14:11:08;10.85;;;4.43;;
68449;SDS011;67758;39.572;2.652;2024-03-23T14:13:35;11.57;;;5.88;;
68449;SDS011;67758;39.572;2.652;2024-03-23T14:16:03;30.87;;;13.27;;
68449;SDS011;67758;39.572;2.652;2024-03-23T14:18:32;11.93;;;5.70;;
68449;SDS011;67758;39.572;2.652;2024-03-23T14:21:08;30.35;;;4.85;;
68449;SDS011;67758;39.572;2.652;2024-03-23T14:23:42;14.95;;;6.85;;
68449;SDS011;67758;39.572;2.652;2024-03-23T14:26:11;17.73;;;8.13;;
68449;SDS011;67758;39.572;2.652;2024-03-23T14:28:39;15.60;;;7.47;;
68449;SDS011;67758;39.572;2.652;2024-03-23T14:31:04;21.30;;;9.15;;
68449;SDS011;67758;39.572;2.652;2024-03-23T14:33:37;13.95;;;5.25;;
68449;SDS011;67758;39.572;2.652;2024-03-23T14:36:26;12.63;;;5.43;;
68449;SDS011;67758;39.572;2.652;2024-03-23T14:39:15;15.38;;;4.75;;
68449;SDS011;67758;39.572;2.652;2024-03-23T14:41:40;17.88;;;8.50;;
68449;SDS011;67758;39.572;2.652;2024-03-23T14:44:10;11.27;;;3.70;;
68449;SDS011;67758;39.572;2.652;2024-03-23T14:46:40;26.90;;;5.28;;
68449;SDS011;67758;39.572;2.652;2024-03-23T14:49:14;14.18;;;5.80;;
68449;SDS011;67758;39.572;2.652;2024-03-23T14:51:54;13.35;;;4.38;;
68449;SDS011;67758;39.572;2.652;2024-03-23T14:54:23;11.27;;;4.15;;
68449;SDS011;67758;39.572;2.652;2024-03-23T14:56:56;13.45;;;4.20;;
68449;SDS011;67758;39.572;2.652;2024-03-23T14:59:29;11.60;;;3.53;;
68449;SDS011;67758;39.572;2.652;2024-03-23T15:02:14;11.25;;;3.53;;
68449;SDS011;67758;39.572;2.652;2024-03-23T15:04:40;8.68;;;3.55;;
68449;SDS011;67758;39.572;2.652;2024-03-23T15:07:07;10.32;;;3.50;;
68449;SDS011;67758;39.572;2.652;2024-03-23T15:09:32;10.23;;;3.47;;
68449;SDS011;67758;39.572;2.652;2024-03-23T15:11:58;8.25;;;3.30;;
68449;SDS011;67758;39.572;2.652;2024-03-23T15:14:24;8.37;;;3.20;;
68449;SDS011;67758;39.572;2.652;2024-03-23T15:16:50;8.23;;;3.33;;
68449;SDS011;67758;39.572;2.652;2024-03-23T15:19:17;8.63;;;2.70;;
68449;SDS011;67758;39.572;2.652;2024-03-23T15:21:43;10.70;;;3.30;;
68449;SDS011;67758;39.572;2.652;2024-03-23T15:24:09;10.30;;;2.55;;
68449;SDS011;67758;39.572;2.652;2024-03-23T15:26:45;6.55;;;2.70;;
68449;SDS011;67758;39.572;2.652;2024-03-23T15:29:11;15.95;;;2.92;;
68449;SDS011;67758;39.572;2.652;2024-03-23T15:31:41;7.83;;;2.47;;
68449;SDS011;67758;39.572;2.652;2024-03-23T15:34:10;8.00;;;3.10;;
68449;SDS011;67758;39.572;2.652;2024-03-23T15:36:37;12.35;;;3.30;;
68449;SDS011;67758;39.572;2.652;2024-03-23T15:39:05;9.80;;;2.70;;
68449;SDS011;67758;39.572;2.652;2024-03-23T15:41:34;8.40;;;2.65;;
68449;SDS011;67758;39.572;2.652;2024-03-23T15:44:04;6.03;;;2.03;;
68449;SDS011;67758;39.572;2.652;2024-03-23T15:46:29;8.95;;;2.60;;
68449;SDS011;67758;39.572;2.652;2024-03-23T15:48:55;6.70;;;1.98;;
68449;SDS011;67758;39.572;2.652;2024-03-23T15:51:23;7.90;;;2.30;;
68449;SDS011;67758;39.572;2.652;2024-03-23T15:54:07;6.25;;;1.77;;
68449;SDS011;67758;39.572;2.652;2024-03-23T15:56:33;11.32;;;2.63;;
68449;SDS011;67758;39.572;2.652;2024-03-23T15:58:58;7.13;;;1.83;;
68449;SDS011;67758;39.572;2.652;2024-03-23T16:01:30;8.68;;;1.98;;
68449;SDS011;67758;39.572;2.652;2024-03-23T16:03:58;5.65;;;1.70;;
68449;SDS011;67758;39.572;2.652;2024-03-23T16:06:25;6.63;;;1.67;;
68449;SDS011;67758;39.572;2.652;2024-03-23T16:08:53;9.68;;;1.92;;
68449;SDS011;67758;39.572;2.652;2024-03-23T16:11:19;4.93;;;1.73;;
68449;SDS011;67758;39.572;2.652;2024-03-23T16:13:48;8.60;;;1.50;;
68449;SDS011;67758;39.572;2.652;2024-03-23T16:16:14;8.45;;;1.75;;
68449;SDS011;67758;39.572;2.652;2024-03-23T16:18:41;5.22;;;1.55;;
68449;SDS011;67758;39.572;2.652;2024-03-23T16:21:08;5.72;;;1.38;;
68449;SDS011;67758;39.572;2.652;2024-03-23T16:23:35;6.68;;;1.60;;
68449;SDS011;67758;39.572;2.652;2024-03-23T16:26:05;6.25;;;1.80;;
68449;SDS011;67758;39.572;2.652;2024-03-23T16:28:32;7.07;;;1.60;;